Afrodite — CURM3 — position and weather

sailwx.info

Track history (hours):
 
Tides and Currents Weather Stations Pressure Air Temp Water Temp Dewpoint Dewpoint Depression Visibility Wind Speed Wind Dir Waves Ship Positions

Afrodite

Last reported at 2016-Jul-21 17:33 UTC. Time now 2016-Jul-25 06:15 UTC.
Position N 38°58' W 009°28'.

Length 26 m.

Type: Fishing. MMSI: 263500170.

Date/timePositionNaut miles runAvg speedWind from/ knotsBaromVisibWave heightAir tempDewpointWater temp
2016-Jul-21 17:33N 38°58' W 009°28'1 1.5
2016-Jul-21 16:33N 38°57' W 009°28'0 0.1
2016-Jul-21 15:33N 38°57' W 009°28'4 0.2
2016-Jul-20 21:34N 39°00' W 009°30'0 0.3
2016-Jul-20 20:33N 39°00' W 009°30'1 1.4
2016-Jul-20 19:34N 38°59' W 009°30'3 2.9
2016-Jul-20 18:33N 38°57' W 009°27'0 0.5
2016-Jul-20 17:33N 38°58' W 009°27'4 4.4
2016-Jul-20 16:33N 38°53' W 009°29'5 4.8
2016-Jul-20 15:29N 38°49' W 009°31'6 6.7
2016-Jul-20 14:33N 38°54' W 009°27'6 0.1
2016-Jul-18 17:33N 39°01' W 009°27'5 4.5
2016-Jul-18 16:33N 38°56' W 009°28'3 2.5
2016-Jul-18 15:33N 38°59' W 009°27'  
2016-Jul-15 21:32N 39°02' W 009°30'1 0.9
2016-Jul-15 20:33N 39°02' W 009°30'  
Track history (hours):
 
Tides and Currents Weather Stations Pressure Air Temp Water Temp Dewpoint Dewpoint Depression Visibility Wind Speed Wind Dir Waves Ship Positions

Afrodite

Last reported at 2016-Jul-21 17:33 UTC. Time now 2016-Jul-25 06:15 UTC.
Position N 38°58' W 009°28'.

Length 26 m.

Type: Fishing. MMSI: 263500170.

Date/timePositionNaut miles runAvg speedWind from/ knotsBaromVisibWave heightAir tempDewpointWater temp
2016-Jul-21 17:33N 38°58' W 009°28'1 1.5
2016-Jul-21 16:33N 38°57' W 009°28'0 0.1
2016-Jul-21 15:33N 38°57' W 009°28'4 0.2
2016-Jul-20 21:34N 39°00' W 009°30'0 0.3
2016-Jul-20 20:33N 39°00' W 009°30'1 1.4
2016-Jul-20 19:34N 38°59' W 009°30'3 2.9
2016-Jul-20 18:33N 38°57' W 009°27'0 0.5
2016-Jul-20 17:33N 38°58' W 009°27'4 4.4
2016-Jul-20 16:33N 38°53' W 009°29'5 4.8
2016-Jul-20 15:29N 38°49' W 009°31'6 6.7
2016-Jul-20 14:33N 38°54' W 009°27'6 0.1
2016-Jul-18 17:33N 39°01' W 009°27'5 4.5
2016-Jul-18 16:33N 38°56' W 009°28'3 2.5
2016-Jul-18 15:33N 38°59' W 009°27'  
2016-Jul-15 21:32N 39°02' W 009°30'1 0.9
2016-Jul-15 20:33N 39°02' W 009°30'  

Dump ship's entire track history